Time;durP1;ratioP1;P1;durP2;ratioP2;P2;SDS_P1;SDS_P2;PMS_P1;PMS_P2;Temp;Humidity;BMP_temperature;BMP_pressure;BME280_temperature;BME280_humidity;BME280_pressure;Samples;Min_cycle;Max_cycle;Signal;HPM_P1;HPM_P2
2021/12/26 00:02:06;;;;;;;1.87;1.00;;;;;;;;;;5007053;28;20034;-67
2021/12/26 00:04:33;;;;;;;3.30;1.53;;;-3.50;99.90;;;;;;5008890;28;20022;-67
2021/12/26 00:06:59;;;;;;;3.83;1.70;;;;;;;;;;5008498;28;20026;-67
2021/12/26 00:09:25;;;;;;;2.87;1.10;;;;;;;;;;5008808;28;20387;-67
2021/12/26 00:11:50;;;;;;;4.63;1.80;;;-3.40;99.90;;;;;;5008983;28;20375;-67
2021/12/26 00:14:16;;;;;;;2.13;1.10;;;;;;;;;;5007982;28;20034;-67
2021/12/26 00:16:42;;;;;;;6.03;1.60;;;-3.40;99.90;;;;;;5008475;28;20045;-67
2021/12/26 00:19:08;;;;;;;3.10;1.47;;;;;;;;;;5008696;28;20124;-67
2021/12/26 00:21:33;;;;;;;3.17;1.27;;;-3.40;99.90;;;;;;5007896;28;20113;-67
2021/12/26 00:23:59;;;;;;;1.87;1.40;;;;;;;;;;5007199;28;20121;-67
2021/12/26 00:26:26;;;;;;;6.00;1.30;;;-3.50;99.90;;;;;;5007101;28;20069;-67
2021/12/26 00:28:52;;;;;;;3.70;1.30;;;;;;;;;;5006630;28;20467;-67
2021/12/26 00:31:18;;;;;;;3.93;1.13;;;;;;;;;;5006789;28;20048;-68
2021/12/26 00:33:44;;;;;;;2.23;1.27;;;-3.60;97.50;;;;;;5006427;28;20037;-67
2021/12/26 00:36:10;;;;;;;3.40;1.50;;;-3.60;99.90;;;;;;5007804;28;20201;-67
2021/12/26 00:38:36;;;;;;;3.73;1.53;;;-3.50;97.50;;;;;;5007749;28;20042;-67
2021/12/26 00:41:02;;;;;;;4.50;1.00;;;-3.60;99.90;;;;;;5011186;28;20037;-67
2021/12/26 00:43:28;;;;;;;5.20;1.80;;;-3.60;99.90;;;;;;5008050;28;20614;-67
2021/12/26 00:45:54;;;;;;;1.97;1.07;;;;;;;;;;5007996;28;20053;-67
2021/12/26 00:48:19;;;;;;;3.03;1.20;;;-3.80;99.90;;;;;;5001575;28;20096;-67
2021/12/26 00:50:45;;;;;;;3.03;1.57;;;-3.70;99.90;;;;;;5003944;28;20407;-67
2021/12/26 00:53:11;;;;;;;2.40;1.27;;;-3.90;99.90;;;;;;5008534;28;20418;-67
2021/12/26 00:55:38;;;;;;;3.43;1.43;;;-3.40;99.90;;;;;;5007303;28;20025;-67
2021/12/26 00:58:04;;;;;;;3.63;2.23;;;-3.60;99.90;;;;;;5009049;28;20376;-67
2021/12/26 01:00:34;;;;;;;2.50;1.57;;;-3.60;97.70;;;;;;5008171;28;20026;-67
2021/12/26 01:03:03;;;;;;;2.23;1.43;;;-3.60;97.30;;;;;;5008624;28;20109;-67
2021/12/26 01:05:30;;;;;;;2.90;1.53;;;-3.50;97.30;;;;;;5000811;28;20026;-67
2021/12/26 01:07:57;;;;;;;3.37;1.90;;;-3.70;99.90;;;;;;4988681;28;20108;-68
2021/12/26 01:10:33;;;;;;;3.13;1.30;;;-3.60;97.30;;;;;;4988866;28;20050;-67
2021/12/26 01:13:09;;;;;;;5.73;1.73;;;-3.40;99.90;;;;;;4988796;28;20092;-67
2021/12/26 01:15:34;;;;;;;6.37;1.77;;;-3.70;99.90;;;;;;4988580;28;20026;-67
2021/12/26 01:18:00;;;;;;;2.47;1.40;;;-3.50;99.90;;;;;;4988694;28;20042;-67
2021/12/26 01:23:33;;;;;;;2.83;1.33;;;-3.70;99.90;;;;;;4969677;28;20147;-67
2021/12/26 01:26:00;;;;;;;2.67;1.30;;;-3.70;97.90;;;;;;4986393;28;20073;-67
2021/12/26 01:28:28;;;;;;;4.17;2.30;;;-3.80;97.40;;;;;;4986183;28;20045;-67
2021/12/26 01:30:55;;;;;;;2.90;1.20;;;-3.80;99.90;;;;;;4986029;28;20064;-67
2021/12/26 01:33:21;;;;;;;3.13;0.80;;;-3.70;99.90;;;;;;4986043;28;20069;-67
2021/12/26 01:35:47;;;;;;;3.43;1.47;;;;;;;;;;4985727;28;20026;-67
2021/12/26 01:38:14;;;;;;;2.53;1.07;;;-3.60;97.90;;;;;;4986392;28;20078;-67
2021/12/26 01:40:50;;;;;;;1.90;1.10;;;-3.60;99.90;;;;;;4988511;28;20036;-67
2021/12/26 01:43:18;;;;;;;1.97;1.00;;;-3.70;97.90;;;;;;4990713;28;20037;-67
2021/12/26 01:45:45;;;;;;;2.70;1.43;;;-3.70;97.70;;;;;;4989736;28;20031;-67
2021/12/26 01:48:12;;;;;;;3.37;1.37;;;-3.70;99.90;;;;;;4990065;28;20041;-67
2021/12/26 01:50:38;;;;;;;5.73;2.03;;;;;;;;;;4973226;28;20030;-67
2021/12/26 01:53:05;;;;;;;3.33;1.47;;;-3.60;97.80;;;;;;4990306;28;20038;-67
2021/12/26 01:55:43;;;;;;;3.03;1.53;;;-3.80;99.90;;;;;;4990119;28;20547;-67
2021/12/26 01:58:29;;;;;;;1.67;1.17;;;-3.70;97.80;;;;;;5005413;28;20041;-67
2021/12/26 02:01:01;;;;;;;5.60;1.50;;;-3.80;99.90;;;;;;5011674;28;20590;-67
2021/12/26 02:03:27;;;;;;;2.33;1.17;;;-3.50;99.90;;;;;;5011446;28;20452;-67
2021/12/26 02:05:53;;;;;;;6.37;1.80;;;-3.40;99.90;;;;;;5011665;28;20482;-67
2021/12/26 02:08:19;;;;;;;2.37;1.10;;;;;;;;;;5012168;28;20030;-67
2021/12/26 02:10:45;;;;;;;2.70;1.20;;;-3.70;99.90;;;;;;5010998;28;20046;-67
2021/12/26 02:13:10;;;;;;;3.80;1.40;;;-3.60;99.90;;;;;;5011925;28;20446;-67
2021/12/26 02:15:36;;;;;;;2.87;1.40;;;-3.40;99.90;;;;;;4998062;28;20034;-68
2021/12/26 02:18:05;;;;;;;2.13;1.30;;;-3.70;99.90;;;;;;4999765;28;20513;-67
2021/12/26 02:23:07;;;;;;;3.57;0.90;;;;;;;;;;5011710;28;20022;-67
2021/12/26 02:28:12;;;;;;;2.50;1.53;;;-3.70;97.50;;;;;;5011721;28;20033;-67
2021/12/26 02:30:39;;;;;;;5.93;2.40;;;-3.40;99.90;;;;;;5010951;28;20168;-67
2021/12/26 02:33:07;;;;;;;2.07;1.17;;;-3.70;99.90;;;;;;5006860;28;20468;-67
2021/12/26 02:35:34;;;;;;;4.43;1.47;;;-3.80;99.90;;;;;;4991605;28;20070;-67
2021/12/26 02:38:00;;;;;;;2.57;1.73;;;-3.80;99.90;;;;;;4991861;28;20391;-67
2021/12/26 02:40:26;;;;;;;5.73;1.60;;;-3.80;99.90;;;;;;4991561;28;20030;-67
2021/12/26 02:42:52;;;;;;;6.03;1.47;;;;;;;;;;4991434;28;20034;-67
2021/12/26 02:45:18;;;;;;;3.63;1.77;;;-3.60;99.90;;;;;;4991990;28;20026;-66
2021/12/26 02:47:46;;;;;;;2.03;1.27;;;-3.70;97.70;;;;;;4991754;28;20037;-66
2021/12/26 02:50:19;;;;;;;6.67;1.63;;;-3.70;96.90;;;;;;4991549;28;20325;-67
2021/12/26 02:52:46;;;;;;;3.20;1.80;;;;;;;;;;4991013;28;20162;-67
2021/12/26 02:55:14;;;;;;;2.63;1.83;;;-3.70;99.90;;;;;;4991637;28;20041;-67
2021/12/26 02:57:40;;;;;;;5.00;1.83;;;;;;;;;;4990934;28;20030;-67
2021/12/26 03:00:11;;;;;;;2.67;1.33;;;-3.80;99.90;;;;;;5006115;28;20026;-67
2021/12/26 03:02:44;;;;;;;2.67;1.10;;;-3.80;98.00;;;;;;4995574;28;20506;-67
2021/12/26 03:05:11;;;;;;;3.17;1.40;;;-3.80;97.50;;;;;;5010756;28;20034;-67
2021/12/26 03:07:36;;;;;;;4.40;1.70;;;-3.70;99.40;;;;;;5008941;28;20439;-66
2021/12/26 03:10:05;;;;;;;5.07;1.90;;;-3.80;97.80;;;;;;5010711;28;20030;-68
2021/12/26 03:12:33;;;;;;;2.60;0.93;;;-3.60;99.90;;;;;;5010612;28;20129;-67
2021/12/26 03:14:59;;;;;;;2.43;1.50;;;;;;;;;;5008844;28;20533;-67
2021/12/26 03:17:25;;;;;;;3.90;1.33;;;-3.90;99.30;;;;;;5007707;28;20022;-67
2021/12/26 03:19:51;;;;;;;3.60;1.50;;;-3.80;99.90;;;;;;4990914;28;20430;-67
2021/12/26 03:22:17;;;;;;;2.00;1.17;;;-3.70;99.90;;;;;;4991256;28;20045;-67
2021/12/26 03:24:43;;;;;;;2.70;1.30;;;-3.90;99.90;;;;;;4990305;28;20097;-67
2021/12/26 03:27:09;;;;;;;2.40;1.30;;;-4.00;99.90;;;;;;4991095;28;20043;-67
2021/12/26 03:29:35;;;;;;;3.87;1.77;;;;;;;;;;4989945;28;20023;-68
2021/12/26 03:32:01;;;;;;;3.73;1.83;;;-3.60;99.90;;;;;;4990689;28;20038;-68
2021/12/26 03:34:27;;;;;;;4.60;2.10;;;;;;;;;;4992751;28;20021;-68
2021/12/26 03:36:56;;;;;;;2.07;1.10;;;-3.80;99.90;;;;;;5010071;28;20044;-68
2021/12/26 03:39:22;;;;;;;3.60;1.10;;;;;;;;;;5010491;28;20360;-69
2021/12/26 03:41:47;;;;;;;1.53;0.70;;;-3.80;99.90;;;;;;5009831;28;20132;-68
2021/12/26 03:44:13;;;;;;;1.57;0.93;;;-4.00;99.90;;;;;;5009859;28;20032;-68
2021/12/26 03:46:39;;;;;;;2.53;1.73;;;-4.00;99.90;;;;;;5009599;28;20066;-68
2021/12/26 03:49:05;;;;;;;3.87;1.70;;;-4.00;99.90;;;;;;5009988;28;20113;-68
2021/12/26 03:51:33;;;;;;;3.93;1.40;;;-3.90;99.90;;;;;;4990433;28;20134;-68
2021/12/26 03:53:59;;;;;;;4.00;1.53;;;-3.80;99.90;;;;;;4990488;28;20031;-68
2021/12/26 03:56:25;;;;;;;5.03;1.60;;;;;;;;;;4990129;28;20133;-68
2021/12/26 03:58:51;;;;;;;3.20;1.50;;;;;;;;;;4989688;28;20101;-68
2021/12/26 04:01:18;;;;;;;1.63;1.10;;;-4.10;99.90;;;;;;4990535;28;20050;-68
2021/12/26 04:03:44;;;;;;;2.90;1.77;;;;;;;;;;4989076;28;20030;-68
2021/12/26 04:06:09;;;;;;;2.53;1.27;;;;;;;;;;4990551;28;20445;-68
2021/12/26 04:08:35;;;;;;;3.80;2.00;;;;;;;;;;4996930;28;20044;-68
2021/12/26 04:11:01;;;;;;;3.30;2.07;;;-3.80;99.90;;;;;;5023719;28;20054;-68
2021/12/26 04:13:26;;;;;;;2.27;1.17;;;-3.90;99.90;;;;;;5007714;28;20041;-69
2021/12/26 04:15:52;;;;;;;6.70;2.13;;;-3.70;99.90;;;;;;5009194;28;20042;-68
2021/12/26 04:18:18;;;;;;;3.20;1.27;;;;;;;;;;5009585;28;20022;-68
2021/12/26 04:20:44;;;;;;;2.70;1.50;;;-3.70;99.90;;;;;;5007658;28;20061;-69
2021/12/26 04:23:11;;;;;;;2.87;1.23;;;;;;;;;;5009686;28;20161;-68
2021/12/26 04:25:37;;;;;;;2.83;1.10;;;-3.80;99.90;;;;;;4999903;28;20018;-68
2021/12/26 04:28:03;;;;;;;4.10;1.77;;;;;;;;;;4989417;28;20045;-68
2021/12/26 04:30:29;;;;;;;2.57;1.33;;;;;;;;;;5004594;28;20041;-68
2021/12/26 04:32:55;;;;;;;5.27;1.60;;;;;;;;;;4989272;28;20050;-68
2021/12/26 04:35:20;;;;;;;4.00;1.47;;;-4.00;99.90;;;;;;4989873;28;20026;-69
2021/12/26 04:37:46;;;;;;;4.23;1.37;;;;;;;;;;4988234;28;20027;-68
2021/12/26 04:40:14;;;;;;;2.07;1.03;;;-4.00;99.90;;;;;;4989628;28;20034;-68
2021/12/26 04:42:43;;;;;;;3.03;1.70;;;-3.90;99.90;;;;;;4988742;28;20109;-68
2021/12/26 04:45:09;;;;;;;2.67;1.40;;;;;;;;;;5006079;28;20026;-68
2021/12/26 04:47:37;;;;;;;3.33;1.97;;;-3.90;97.30;;;;;;5008804;28;20590;-68
2021/12/26 04:50:08;;;;;;;3.17;1.40;;;-4.00;99.90;;;;;;5009352;28;20058;-68
2021/12/26 04:52:34;;;;;;;3.10;1.20;;;-3.90;99.90;;;;;;5008705;28;20037;-68
2021/12/26 04:55:02;;;;;;;2.73;1.33;;;-4.00;99.90;;;;;;5008887;28;20058;-68
2021/12/26 04:57:28;;;;;;;3.57;1.10;;;-4.00;99.90;;;;;;5008451;28;20021;-68
2021/12/26 04:59:53;;;;;;;4.83;1.60;;;-4.00;99.90;;;;;;4994507;28;20172;-68
2021/12/26 05:02:19;;;;;;;2.43;1.50;;;-3.80;99.90;;;;;;4989525;28;20138;-68
2021/12/26 05:04:45;;;;;;;2.87;1.40;;;-3.80;99.90;;;;;;4988860;28;20034;-68
2021/12/26 05:07:10;;;;;;;2.67;1.13;;;-3.90;99.90;;;;;;4989138;28;20045;-68
2021/12/26 05:09:36;;;;;;;2.93;1.13;;;;;;;;;;4988771;28;20038;-68
2021/12/26 05:12:02;;;;;;;4.93;1.77;;;-3.70;99.90;;;;;;4988608;28;20054;-68
2021/12/26 05:14:28;;;;;;;2.67;0.77;;;;;;;;;;4988852;28;20121;-68
2021/12/26 05:16:53;;;;;;;3.57;1.37;;;-3.90;99.90;;;;;;4989607;28;20044;-68
2021/12/26 05:19:19;;;;;;;1.70;1.00;;;-3.80;99.90;;;;;;5007577;28;20102;-68
2021/12/26 05:21:45;;;;;;;2.50;1.77;;;-3.70;99.90;;;;;;5008206;28;20491;-68
2021/12/26 05:24:10;;;;;;;3.07;1.47;;;-3.70;99.90;;;;;;5008756;28;20033;-67
2021/12/26 05:26:36;;;;;;;2.93;1.67;;;;;;;;;;5007716;28;20033;-68
2021/12/26 05:29:02;;;;;;;4.53;1.60;;;-3.70;99.90;;;;;;5008665;28;20143;-68
2021/12/26 05:31:28;;;;;;;3.07;1.10;;;;;;;;;;5008375;28;20045;-68
2021/12/26 05:33:53;;;;;;;4.10;1.57;;;-3.50;99.90;;;;;;5008436;28;20033;-68
2021/12/26 05:36:19;;;;;;;5.17;1.33;;;;;;;;;;4990087;28;20119;-68
2021/12/26 05:38:45;;;;;;;3.90;1.07;;;-3.30;99.90;;;;;;4988442;28;20034;-68
2021/12/26 05:41:11;;;;;;;2.33;1.20;;;-3.40;99.90;;;;;;4988594;28;20031;-68
2021/12/26 05:43:36;;;;;;;3.77;1.93;;;;;;;;;;4988537;28;20034;-68
2021/12/26 05:46:02;;;;;;;1.53;1.03;;;-3.10;99.90;;;;;;4988920;28;20026;-68
2021/12/26 05:48:28;;;;;;;2.53;1.20;;;;;;;;;;4988754;28;20460;-68
2021/12/26 05:50:53;;;;;;;2.40;1.57;;;-3.20;99.90;;;;;;4988488;28;20038;-68
2021/12/26 05:53:19;;;;;;;3.13;1.67;;;-3.00;95.90;;;;;;4994575;28;20037;-68
2021/12/26 05:55:45;;;;;;;3.43;1.20;;;-3.20;99.90;;;;;;5007211;28;20084;-68
2021/12/26 05:58:11;;;;;;;5.07;1.43;;;;;;;;;;5008225;28;20046;-68
2021/12/26 06:00:37;;;;;;;4.37;1.57;;;-2.70;99.90;;;;;;5007926;28;20118;-68
2021/12/26 06:03:02;;;;;;;3.60;1.87;;;;;;;;;;5008411;28;20454;-68
2021/12/26 06:05:28;;;;;;;3.73;1.23;;;-3.00;99.90;;;;;;5007966;28;20030;-68
2021/12/26 06:07:54;;;;;;;2.00;0.90;;;-3.00;97.40;;;;;;5004736;28;20068;-68
2021/12/26 06:10:19;;;;;;;2.30;1.20;;;-3.10;99.90;;;;;;5006238;28;20046;-68
2021/12/26 06:12:45;;;;;;;3.77;1.50;;;-2.90;99.90;;;;;;5007460;28;20143;-68
2021/12/26 06:15:12;;;;;;;3.70;1.80;;;-2.90;97.20;;;;;;5007981;28;20097;-68
2021/12/26 06:17:38;;;;;;;3.10;1.07;;;;;;;;;;5007185;28;20398;-68
2021/12/26 06:20:05;;;;;;;2.07;0.93;;;-2.90;95.70;;;;;;5007816;28;20026;-68
2021/12/26 06:22:31;;;;;;;3.03;1.20;;;;;;;;;;5007877;28;20029;-68
2021/12/26 06:24:57;;;;;;;2.63;0.73;;;;;;;;;;5007596;28;20022;-67
2021/12/26 06:27:24;;;;;;;3.17;1.40;;;;;;;;;;5002422;28;20097;-67
2021/12/26 06:29:49;;;;;;;2.87;1.03;;;-2.80;99.90;;;;;;5005315;28;20022;-68
2021/12/26 06:32:15;;;;;;;3.97;0.97;;;-2.70;99.90;;;;;;5011776;28;20037;-68
2021/12/26 06:34:41;;;;;;;2.50;1.03;;;;;;;;;;5009690;28;20117;-68
2021/12/26 06:37:06;;;;;;;3.87;1.40;;;-2.80;99.90;;;;;;5011674;28;20030;-68
2021/12/26 06:39:32;;;;;;;1.83;0.80;;;-2.60;99.90;;;;;;5010959;28;20087;-68
2021/12/26 06:41:57;;;;;;;2.23;1.20;;;-2.50;99.90;;;;;;5010568;28;20089;-68
2021/12/26 06:44:23;;;;;;;1.90;1.27;;;;;;;;;;5008514;28;20112;-68
2021/12/26 06:46:49;;;;;;;1.80;0.80;;;;;;;;;;5010682;28;20037;-68
2021/12/26 06:49:18;;;;;;;5.10;1.60;;;-2.60;94.60;;;;;;5011488;28;20114;-68
2021/12/26 06:51:45;;;;;;;2.10;0.90;;;-2.80;96.00;;;;;;5010430;28;20077;-68
2021/12/26 06:54:11;;;;;;;2.50;1.33;;;;;;;;;;5010746;28;20036;-68
2021/12/26 06:56:37;;;;;;;2.73;0.93;;;;;;;;;;5010487;28;20096;-68
2021/12/26 06:59:03;;;;;;;3.10;1.83;;;;;;;;;;5011222;28;20034;-68
2021/12/26 07:01:29;;;;;;;2.17;1.13;;;;;;;;;;5010792;28;20084;-68
2021/12/26 07:03:55;;;;;;;2.10;1.30;;;-2.60;99.90;;;;;;4993570;28;20030;-68
2021/12/26 07:06:20;;;;;;;3.83;1.17;;;-2.60;99.90;;;;;;4991234;28;20026;-68
2021/12/26 07:08:47;;;;;;;2.67;1.20;;;;;;;;;;4990408;28;20034;-68
2021/12/26 07:11:15;;;;;;;4.10;2.30;;;-2.50;99.90;;;;;;4991069;28;20050;-68
2021/12/26 07:13:41;;;;;;;2.77;1.30;;;;;;;;;;4990699;28;20030;-68
2021/12/26 07:16:06;;;;;;;2.20;1.00;;;-2.60;99.90;;;;;;4991400;28;20088;-68
2021/12/26 07:18:32;;;;;;;2.47;1.50;;;;;;;;;;5004219;28;20364;-68
2021/12/26 07:20:58;;;;;;;2.23;0.90;;;-2.60;99.90;;;;;;5025804;28;20034;-68
2021/12/26 07:23:24;;;;;;;2.93;0.93;;;-2.40;99.90;;;;;;5010386;28;20030;-68
2021/12/26 07:25:49;;;;;;;3.20;1.40;;;-2.80;99.90;;;;;;5010358;28;20072;-68
2021/12/26 07:28:15;;;;;;;1.40;1.00;;;-2.80;99.90;;;;;;5010776;28;20032;-68
2021/12/26 07:30:41;;;;;;;2.10;0.90;;;;;;;;;;5010129;28;20064;-68
2021/12/26 07:33:06;;;;;;;2.93;1.77;;;-2.70;99.90;;;;;;5010684;28;20060;-68
2021/12/26 07:35:32;;;;;;;3.87;1.83;;;;;;;;;;5009183;28;20364;-68
2021/12/26 07:37:58;;;;;;;3.37;1.20;;;-2.70;99.90;;;;;;4989864;28;20479;-68
2021/12/26 07:40:25;;;;;;;5.90;2.03;;;;;;;;;;4990851;28;20464;-68
2021/12/26 07:42:51;;;;;;;4.03;1.80;;;-2.50;99.90;;;;;;5005492;28;20041;-68
2021/12/26 07:45:17;;;;;;;4.03;1.37;;;;;;;;;;4990915;28;20035;-68
2021/12/26 07:47:42;;;;;;;2.90;1.30;;;-2.60;99.90;;;;;;4990289;28;20897;-68
2021/12/26 07:50:08;;;;;;;3.27;1.47;;;-2.60;99.90;;;;;;4990129;28;20034;-68
2021/12/26 07:52:38;;;;;;;3.50;1.10;;;-2.80;99.90;;;;;;4992155;28;20042;-69
2021/12/26 07:55:06;;;;;;;2.73;1.03;;;-3.50;95.80;;;;;;5010149;28;20029;-68
2021/12/26 07:57:31;;;;;;;3.43;1.40;;;;;;;;;;5009973;28;20097;-68
2021/12/26 07:59:58;;;;;;;2.70;1.30;;;;;;;;;;5024780;28;20057;-68
2021/12/26 08:02:23;;;;;;;3.47;1.40;;;-2.60;99.90;;;;;;5009968;28;20343;-68
2021/12/26 08:04:49;;;;;;;5.00;1.33;;;;;;;;;;5009105;28;20470;-68
2021/12/26 08:07:15;;;;;;;2.53;1.47;;;-2.70;99.90;;;;;;5010045;28;20029;-68
2021/12/26 08:09:40;;;;;;;4.40;1.70;;;-2.70;99.90;;;;;;5009148;28;20030;-68
2021/12/26 08:12:06;;;;;;;2.17;1.17;;;-2.60;99.90;;;;;;4999596;28;20050;-68
2021/12/26 08:14:32;;;;;;;2.93;1.43;;;-2.60;99.90;;;;;;4989975;28;20327;-68
2021/12/26 08:16:57;;;;;;;2.53;1.27;;;-2.80;99.90;;;;;;4989973;28;20116;-68
2021/12/26 08:19:23;;;;;;;4.40;1.37;;;;;;;;;;4989746;28;20022;-68
2021/12/26 08:21:52;;;;;;;1.83;1.10;;;-2.80;98.10;;;;;;5004583;28;20381;-68
2021/12/26 08:24:18;;;;;;;2.63;1.50;;;-2.80;99.90;;;;;;4990180;28;20028;-68
2021/12/26 08:26:49;;;;;;;3.10;2.07;;;;;;;;;;4995370;28;20061;-68
2021/12/26 08:29:15;;;;;;;2.87;1.17;;;-2.80;99.90;;;;;;5009628;28;20018;-68
2021/12/26 08:31:41;;;;;;;3.20;1.80;;;-2.50;99.90;;;;;;5008557;28;20037;-69
2021/12/26 08:34:07;;;;;;;3.30;1.47;;;;;;;;;;5008691;28;20103;-68
2021/12/26 08:36:33;;;;;;;5.17;1.77;;;;;;;;;;5008826;28;20025;-69
2021/12/26 08:38:59;;;;;;;3.20;1.40;;;-2.60;99.90;;;;;;5009124;28;20448;-69
2021/12/26 08:41:25;;;;;;;8.03;2.07;;;;;;;;;;5009202;28;20025;-69
2021/12/26 08:43:53;;;;;;;3.67;1.63;;;;;;;;;;5008895;28;20045;-69
2021/12/26 08:46:19;;;;;;;1.63;0.83;;;-2.70;99.90;;;;;;5008826;28;20033;-68
2021/12/26 08:48:44;;;;;;;3.47;2.00;;;-2.70;99.90;;;;;;5007529;28;20038;-68
2021/12/26 08:51:10;;;;;;;2.37;1.57;;;-2.70;99.90;;;;;;5008598;28;20487;-68
2021/12/26 08:53:36;;;;;;;5.33;1.60;;;;;;;;;;5008205;28;20420;-67
2021/12/26 08:56:02;;;;;;;4.27;1.20;;;-2.80;99.90;;;;;;5008543;28;20115;-68
2021/12/26 08:58:28;;;;;;;3.40;1.60;;;-2.60;99.90;;;;;;5008551;28;20446;-68
2021/12/26 09:00:55;;;;;;;1.80;1.20;;;-2.50;99.90;;;;;;5008322;28;20045;-68
2021/12/26 09:03:21;;;;;;;2.87;1.53;;;;;;;;;;5003284;28;20041;-68
2021/12/26 09:05:46;;;;;;;2.97;1.70;;;-2.30;99.90;;;;;;5007254;28;20053;-68
2021/12/26 09:08:12;;;;;;;3.43;1.73;;;-2.00;99.90;;;;;;5007922;28;20394;-68
2021/12/26 09:10:39;;;;;;;3.93;2.37;;;-2.30;97.70;;;;;;5004521;28;20148;-68
2021/12/26 09:13:06;;;;;;;3.33;1.90;;;-2.30;99.90;;;;;;4989017;28;20048;-68
2021/12/26 09:15:32;;;;;;;3.47;1.67;;;-2.10;99.90;;;;;;4988671;28;20076;-68
2021/12/26 09:17:59;;;;;;;2.90;1.67;;;;;;;;;;4988319;28;20038;-68
2021/12/26 09:20:25;;;;;;;4.20;1.90;;;;;;;;;;4988573;28;20065;-68
2021/12/26 09:22:51;;;;;;;8.77;2.07;;;-2.00;99.90;;;;;;5007885;28;20045;-68
2021/12/26 09:25:17;;;;;;;3.43;2.20;;;;;;;;;;5008627;28;20021;-68
2021/12/26 09:27:43;;;;;;;5.47;2.27;;;-2.10;99.90;;;;;;5007935;28;20699;-68
2021/12/26 09:30:11;;;;;;;4.23;1.70;;;-2.20;99.90;;;;;;5008276;28;20029;-68
2021/12/26 09:32:37;;;;;;;3.90;2.10;;;-1.80;99.90;;;;;;5007432;28;20038;-68
2021/12/26 09:35:03;;;;;;;2.23;1.30;;;-1.30;99.90;;;;;;5008261;28;20416;-68
2021/12/26 09:37:29;;;;;;;4.47;1.70;;;-2.10;99.90;;;;;;4992277;28;20057;-70
2021/12/26 09:39:54;;;;;;;5.17;2.20;;;-1.80;99.90;;;;;;4988502;28;20455;-68
2021/12/26 09:42:21;;;;;;;5.87;2.00;;;-1.90;99.90;;;;;;4988735;28;20058;-68
2021/12/26 09:44:47;;;;;;;3.73;2.30;;;-1.90;99.90;;;;;;4988085;28;20032;-68
2021/12/26 09:47:14;;;;;;;3.50;2.00;;;-1.80;99.90;;;;;;4988194;28;20030;-68
2021/12/26 09:49:40;;;;;;;2.83;1.47;;;-1.60;99.90;;;;;;4987849;28;20387;-67
2021/12/26 09:52:06;;;;;;;4.00;1.30;;;-1.70;97.90;;;;;;4988591;28;20034;-68
2021/12/26 09:54:32;;;;;;;3.40;1.57;;;;;;;;;;4991100;28;20053;-68
2021/12/26 09:56:58;;;;;;;3.57;2.40;;;;;;;;;;5007805;28;20096;-68
2021/12/26 09:59:27;;;;;;;4.20;2.30;;;-1.50;99.90;;;;;;5008004;28;20060;-68
2021/12/26 10:01:55;;;;;;;3.27;1.90;;;-1.50;97.80;;;;;;5010357;28;20033;-68
2021/12/26 10:04:28;;;;;;;3.63;1.77;;;-1.70;99.90;;;;;;5011915;28;20375;-68
2021/12/26 10:07:12;;;;;;;2.90;1.93;;;-1.50;97.10;;;;;;5009944;28;20029;-68
2021/12/26 10:09:42;;;;;;;;;;;-1.40;98.00;;;;;;5011707;28;20022;-68
2021/12/26 10:12:12;;;;;;;4.53;2.73;;;-1.30;99.90;;;;;;5001648;28;20017;-68
2021/12/26 10:14:38;;;;;;;7.40;5.27;;;;;;;;;;4991387;28;20419;-68
2021/12/26 10:17:12;;;;;;;10.43;7.57;;;-1.50;97.40;;;;;;4991956;28;20387;-68
2021/12/26 10:19:44;;;;;;;14.63;10.50;;;-1.30;99.90;;;;;;4991464;28;20019;-68
2021/12/26 10:22:12;;;;;;;13.53;9.47;;;-0.70;99.90;;;;;;4992052;28;20149;-68
2021/12/26 10:24:41;;;;;;;8.57;4.73;;;-1.20;98.30;;;;;;4997573;28;20113;-68
2021/12/26 10:27:08;;;;;;;3.73;2.50;;;-1.20;99.90;;;;;;5000579;28;20101;-68
2021/12/26 10:29:43;;;;;;;7.90;2.90;;;-0.90;99.90;;;;;;5010894;28;20040;-67
2021/12/26 10:32:13;;;;;;;3.00;2.03;;;-1.10;98.30;;;;;;5011219;28;20046;-68
2021/12/26 10:34:44;;;;;;;4.07;2.53;;;-0.90;99.90;;;;;;5025979;28;20022;-68
2021/12/26 10:37:16;;;;;;;5.33;2.73;;;-1.00;98.20;;;;;;5011398;28;20163;-68
2021/12/26 10:39:48;;;;;;;3.67;2.43;;;-0.80;99.90;;;;;;5010377;28;20550;-68
2021/12/26 10:42:19;;;;;;;4.87;2.30;;;-0.90;99.90;;;;;;5011558;28;20024;-67
2021/12/26 10:44:48;;;;;;;5.60;2.77;;;-1.00;98.30;;;;;;5003802;28;20545;-68
2021/12/26 10:47:20;;;;;;;5.73;2.77;;;-0.80;99.90;;;;;;5011280;28;20136;-68
2021/12/26 10:50:06;;;;;;;5.43;2.90;;;-1.00;99.90;;;;;;5010618;28;20034;-67
2021/12/26 10:52:53;;;;;;;7.13;2.97;;;-1.10;99.90;;;;;;4995346;28;20042;-68
2021/12/26 10:55:31;;;;;;;3.00;1.60;;;-0.70;99.90;;;;;;4991418;28;20022;-68
2021/12/26 10:58:01;;;;;;;3.73;2.20;;;-1.00;99.90;;;;;;4991064;28;20019;-68
2021/12/26 11:00:34;;;;;;;4.37;2.60;;;-0.90;99.90;;;;;;4990698;28;20034;-68
2021/12/26 11:03:06;;;;;;;10.32;3.50;;;-0.70;99.90;;;;;;4992424;28;20441;-68
2021/12/26 11:05:35;;;;;;;3.80;2.27;;;-0.80;99.90;;;;;;4989845;28;20030;-67
2021/12/26 11:08:11;;;;;;;5.07;3.20;;;-0.60;99.90;;;;;;4991266;28;20379;-67
2021/12/26 11:10:44;;;;;;;6.27;3.13;;;-0.60;99.90;;;;;;4995018;28;20047;-68
2021/12/26 11:13:24;;;;;;;6.33;3.07;;;-0.80;98.10;;;;;;5000435;28;20054;-68
2021/12/26 11:15:55;;;;;;;6.87;3.53;;;-0.70;98.80;;;;;;5001276;28;20040;-68
2021/12/26 11:18:22;;;;;;;5.67;3.30;;;-0.70;99.00;;;;;;4998647;28;20100;-68
2021/12/26 11:20:50;;;;;;;3.80;2.83;;;-0.70;99.00;;;;;;5001366;28;20022;-68
2021/12/26 11:23:28;;;;;;;5.63;2.80;;;-0.60;99.10;;;;;;5005702;28;20022;-68
2021/12/26 11:25:53;;;;;;;9.53;4.13;;;-0.70;99.90;;;;;;5010235;28;20214;-68
2021/12/26 11:28:26;;;;;;;6.43;2.93;;;-0.70;99.90;;;;;;5002840;28;20125;-68
2021/12/26 11:30:54;;;;;;;7.20;3.63;;;-0.70;99.30;;;;;;5000639;28;21142;-68
2021/12/26 11:33:21;;;;;;;5.90;3.33;;;;;;;;;;4999242;28;20026;-68
2021/12/26 11:35:47;;;;;;;7.37;3.03;;;-0.50;99.90;;;;;;4999791;28;20032;-68
2021/12/26 11:38:18;;;;;;;5.07;2.87;;;;;;;;;;5000990;28;20026;-68
2021/12/26 11:40:46;;;;;;;5.97;2.90;;;-0.60;99.50;;;;;;5000566;28;20022;-68
2021/12/26 11:43:44;;;;;;;9.90;3.53;;;-0.50;98.80;;;;;;4997636;28;20037;-68
2021/12/26 11:46:10;;;;;;;5.37;3.20;;;;;;;;;;5000984;28;20033;-68
2021/12/26 11:48:55;;;;;;;7.30;3.37;;;-0.30;99.90;;;;;;5000569;28;20445;-68
2021/12/26 11:51:47;;;;;;;7.15;3.92;;;-0.50;99.90;;;;;;5001524;28;20056;-68
2021/12/26 11:54:37;;;;;;;6.60;3.27;;;-0.30;99.90;;;;;;4992403;28;20035;-68
2021/12/26 11:57:03;;;;;;;7.60;3.23;;;;;;;;;;5003652;28;20022;-68
2021/12/26 11:59:56;;;;;;;7.67;4.37;;;-0.30;99.90;;;;;;5008097;28;20053;-68
2021/12/26 12:02:45;;;;;;;7.20;3.47;;;-0.50;99.90;;;;;;5010055;28;20613;-68
2021/12/26 12:05:20;;;;;;;6.70;3.40;;;-0.10;99.90;;;;;;5007020;28;20036;-68
2021/12/26 12:08:04;;;;;;;4.37;3.37;;;-0.30;99.20;;;;;;5004675;28;20026;-68
2021/12/26 12:10:44;;;;;;;5.82;3.53;;;-0.20;99.90;;;;;;4998136;28;20050;-68
2021/12/26 12:13:38;;;;;;;6.77;3.77;;;-0.10;99.90;;;;;;4999179;28;20553;-68
2021/12/26 12:16:06;;;;;;;6.78;4.03;;;-0.10;99.90;;;;;;4999982;28;20034;-68
2021/12/26 12:18:38;;;;;;;6.90;4.30;;;-0.30;99.90;;;;;;5004428;28;20076;-68
2021/12/26 12:21:36;;;;;;;7.03;3.73;;;-0.40;99.90;;;;;;4995049;28;20022;-68
2021/12/26 12:24:07;;;;;;;6.70;3.93;;;-0.10;99.90;;;;;;4996255;28;20033;-68
2021/12/26 12:26:54;;;;;;;5.77;3.80;;;-0.40;99.90;;;;;;4993286;28;20030;-68
2021/12/26 12:29:28;;;;;;;5.80;4.10;;;-0.10;99.90;;;;;;4989941;28;20030;-69
2021/12/26 12:32:06;;;;;;;7.40;4.53;;;-0.30;99.90;;;;;;4989395;28;20061;-68
2021/12/26 12:34:56;;;;;;;9.80;4.67;;;0.10;99.90;;;;;;4997390;28;20037;-68
2021/12/26 12:37:38;;;;;;;7.50;4.30;;;-0.10;99.90;;;;;;5006093;28;20057;-68
2021/12/26 12:40:06;;;;;;;8.03;3.90;;;0.10;99.90;;;;;;5008839;28;20025;-68
2021/12/26 12:42:33;;;;;;;8.67;4.73;;;0.40;99.90;;;;;;5008831;28;20029;-68
2021/12/26 12:44:59;;;;;;;10.63;4.27;;;0.50;99.90;;;;;;5005866;28;20479;-67
2021/12/26 12:47:26;;;;;;;6.33;3.77;;;;;;;;;;5008887;28;20025;-67
2021/12/26 12:50:01;;;;;;;8.20;4.63;;;0.70;99.90;;;;;;4997954;28;20058;-67
2021/12/26 12:52:45;;;;;;;6.70;3.90;;;0.90;99.90;;;;;;4989148;28;20026;-67
2021/12/26 12:55:20;;;;;;;8.13;4.63;;;0.80;99.60;;;;;;4988776;28;20040;-68
2021/12/26 12:57:52;;;;;;;8.47;4.80;;;1.20;99.90;;;;;;5016795;28;20034;-68
2021/12/26 13:00:24;;;;;;;10.67;6.20;;;1.00;99.20;;;;;;5009057;28;20022;-67
2021/12/26 13:02:54;;;;;;;10.40;5.13;;;0.90;99.90;;;;;;5008432;28;20030;-67
2021/12/26 13:05:28;;;;;;;9.63;4.77;;;1.40;99.90;;;;;;5008882;28;20045;-67
2021/12/26 13:08:02;;;;;;;7.15;5.03;;;0.90;99.90;;;;;;5000427;28;20037;-67
2021/12/26 13:10:29;;;;;;;8.40;4.60;;;1.00;99.90;;;;;;4997061;28;20373;-67
2021/12/26 13:13:09;;;;;;;6.87;5.00;;;1.20;99.90;;;;;;4997792;28;20038;-68
2021/12/26 13:15:46;;;;;;;8.00;5.10;;;1.20;99.90;;;;;;4999117;28;20118;-67
2021/12/26 13:18:12;;;;;;;9.97;4.53;;;;;;;;;;4990570;28;20448;-68
2021/12/26 13:20:38;;;;;;;7.10;4.67;;;1.10;99.90;;;;;;4995810;28;20045;-68
2021/12/26 13:23:05;;;;;;;7.80;4.77;;;;;;;;;;4997608;28;20030;-68
2021/12/26 13:25:35;;;;;;;9.13;4.87;;;1.30;99.20;;;;;;4997895;28;20416;-68
2021/12/26 13:28:25;;;;;;;7.43;5.40;;;1.30;99.90;;;;;;4996224;28;20715;-68
2021/12/26 13:30:54;;;;;;;10.67;5.73;;;1.20;99.90;;;;;;4997617;28;20018;-68